sensor_id;sensor_type;location;lat;lon;timestamp;temperature;humidity
52799;DHT22;38667;42.872;74.622;2023-04-24T00:01:57;12.10;54.00
52799;DHT22;38667;42.872;74.622;2023-04-24T00:04:23;12.10;54.10
52799;DHT22;38667;42.872;74.622;2023-04-24T00:06:49;12.00;53.20
52799;DHT22;38667;42.872;74.622;2023-04-24T00:09:16;12.00;51.60
52799;DHT22;38667;42.872;74.622;2023-04-24T00:11:42;12.00;50.30
52799;DHT22;38667;42.872;74.622;2023-04-24T00:14:10;12.00;51.70
52799;DHT22;38667;42.872;74.622;2023-04-24T00:16:36;12.10;52.10
52799;DHT22;38667;42.872;74.622;2023-04-24T00:19:03;12.10;54.40
52799;DHT22;38667;42.872;74.622;2023-04-24T00:21:29;12.00;52.40
52799;DHT22;38667;42.872;74.622;2023-04-24T00:23:55;12.00;54.30
52799;DHT22;38667;42.872;74.622;2023-04-24T00:26:22;11.90;53.10
52799;DHT22;38667;42.872;74.622;2023-04-24T00:28:48;11.90;54.30
52799;DHT22;38667;42.872;74.622;2023-04-24T00:31:16;11.90;53.00
52799;DHT22;38667;42.872;74.622;2023-04-24T00:33:42;11.90;52.60
52799;DHT22;38667;42.872;74.622;2023-04-24T00:36:08;11.90;53.70
52799;DHT22;38667;42.872;74.622;2023-04-24T00:38:35;11.90;52.60
52799;DHT22;38667;42.872;74.622;2023-04-24T00:41:01;11.80;53.60
52799;DHT22;38667;42.872;74.622;2023-04-24T00:43:27;11.70;52.10
52799;DHT22;38667;42.872;74.622;2023-04-24T00:45:54;11.80;52.70
52799;DHT22;38667;42.872;74.622;2023-04-24T00:48:23;11.90;53.80
52799;DHT22;38667;42.872;74.622;2023-04-24T00:50:51;12.00;53.50
52799;DHT22;38667;42.872;74.622;2023-04-24T00:53:17;12.30;48.10
52799;DHT22;38667;42.872;74.622;2023-04-24T00:55:43;12.60;53.90
52799;DHT22;38667;42.872;74.622;2023-04-24T00:58:10;12.70;53.30
52799;DHT22;38667;42.872;74.622;2023-04-24T01:00:36;12.80;47.30
52799;DHT22;38667;42.872;74.622;2023-04-24T01:03:05;13.10;48.00
52799;DHT22;38667;42.872;74.622;2023-04-24T01:05:33;13.20;49.90
52799;DHT22;38667;42.872;74.622;2023-04-24T01:08:00;13.30;50.20
52799;DHT22;38667;42.872;74.622;2023-04-24T01:10:27;13.30;51.10
52799;DHT22;38667;42.872;74.622;2023-04-24T01:12:56;13.30;50.00
52799;DHT22;38667;42.872;74.622;2023-04-24T01:15:22;13.20;51.40
52799;DHT22;38667;42.872;74.622;2023-04-24T01:17:49;13.20;51.30
52799;DHT22;38667;42.872;74.622;2023-04-24T01:20:15;13.20;51.20
52799;DHT22;38667;42.872;74.622;2023-04-24T01:22:43;13.10;52.50
52799;DHT22;38667;42.872;74.622;2023-04-24T01:25:09;13.20;52.00
52799;DHT22;38667;42.872;74.622;2023-04-24T01:27:36;13.20;55.10
52799;DHT22;38667;42.872;74.622;2023-04-24T01:30:02;13.20;56.20
52799;DHT22;38667;42.872;74.622;2023-04-24T01:32:29;13.20;54.50
52799;DHT22;38667;42.872;74.622;2023-04-24T01:34:56;13.30;51.00
52799;DHT22;38667;42.872;74.622;2023-04-24T01:37:22;13.70;45.20
52799;DHT22;38667;42.872;74.622;2023-04-24T01:39:50;14.00;44.40
52799;DHT22;38667;42.872;74.622;2023-04-24T01:42:16;14.20;42.90
52799;DHT22;38667;42.872;74.622;2023-04-24T01:44:43;14.50;43.30
52799;DHT22;38667;42.872;74.622;2023-04-24T01:47:09;14.60;46.00
52799;DHT22;38667;42.872;74.622;2023-04-24T01:49:37;14.70;45.00
52799;DHT22;38667;42.872;74.622;2023-04-24T01:52:04;14.80;44.20
52799;DHT22;38667;42.872;74.622;2023-04-24T01:54:30;14.90;43.70
52799;DHT22;38667;42.872;74.622;2023-04-24T01:56:58;15.00;45.50
52799;DHT22;38667;42.872;74.622;2023-04-24T01:59:25;15.00;46.90
52799;DHT22;38667;42.872;74.622;2023-04-24T02:02:27;15.10;45.80
52799;DHT22;38667;42.872;74.622;2023-04-24T02:04:53;15.20;45.10
52799;DHT22;38667;42.872;74.622;2023-04-24T02:18:04;15.40;44.30
52799;DHT22;38667;42.872;74.622;2023-04-24T02:20:30;16.20;42.90
52799;DHT22;38667;42.872;74.622;2023-04-24T02:22:57;16.30;42.60
52799;DHT22;38667;42.872;74.622;2023-04-24T02:25:23;16.40;42.20
52799;DHT22;38667;42.872;74.622;2023-04-24T02:27:50;16.60;42.20
52799;DHT22;38667;42.872;74.622;2023-04-24T02:30:16;16.70;42.20
52799;DHT22;38667;42.872;74.622;2023-04-24T02:32:42;16.90;42.00
52799;DHT22;38667;42.872;74.622;2023-04-24T02:35:11;17.00;41.70
52799;DHT22;38667;42.872;74.622;2023-04-24T02:37:37;17.20;41.60
52799;DHT22;38667;42.872;74.622;2023-04-24T02:40:04;17.30;41.50
52799;DHT22;38667;42.872;74.622;2023-04-24T02:42:30;17.40;41.50
52799;DHT22;38667;42.872;74.622;2023-04-24T02:44:57;17.50;41.90
52799;DHT22;38667;42.872;74.622;2023-04-24T02:47:23;17.50;42.30
52799;DHT22;38667;42.872;74.622;2023-04-24T02:49:49;17.60;43.70
52799;DHT22;38667;42.872;74.622;2023-04-24T02:52:17;17.70;44.80
52799;DHT22;38667;42.872;74.622;2023-04-24T02:54:44;17.70;45.20
52799;DHT22;38667;42.872;74.622;2023-04-24T02:57:10;17.80;45.40
52799;DHT22;38667;42.872;74.622;2023-04-24T02:59:36;17.90;45.70
52799;DHT22;38667;42.872;74.622;2023-04-24T03:02:02;18.00;45.80
52799;DHT22;38667;42.872;74.622;2023-04-24T03:04:29;18.10;45.80
52799;DHT22;38667;42.872;74.622;2023-04-24T03:06:55;18.30;45.50
52799;DHT22;38667;42.872;74.622;2023-04-24T03:09:23;18.30;45.30
52799;DHT22;38667;42.872;74.622;2023-04-24T03:11:49;18.50;45.30
52799;DHT22;38667;42.872;74.622;2023-04-24T03:14:16;18.60;44.70
52799;DHT22;38667;42.872;74.622;2023-04-24T03:16:42;18.70;44.30
52799;DHT22;38667;42.872;74.622;2023-04-24T03:19:08;18.80;43.80
52799;DHT22;38667;42.872;74.622;2023-04-24T03:21:35;18.90;43.50
52799;DHT22;38667;42.872;74.622;2023-04-24T03:24:01;19.10;42.90
52799;DHT22;38667;42.872;74.622;2023-04-24T03:26:29;19.20;42.70
52799;DHT22;38667;42.872;74.622;2023-04-24T03:28:55;19.30;42.10
52799;DHT22;38667;42.872;74.622;2023-04-24T03:31:21;19.40;41.80
52799;DHT22;38667;42.872;74.622;2023-04-24T03:33:48;19.50;41.50
52799;DHT22;38667;42.872;74.622;2023-04-24T03:36:14;19.60;40.70
52799;DHT22;38667;42.872;74.622;2023-04-24T03:38:40;19.70;40.70
52799;DHT22;38667;42.872;74.622;2023-04-24T03:41:06;19.80;39.90
52799;DHT22;38667;42.872;74.622;2023-04-24T03:43:34;19.90;39.50
52799;DHT22;38667;42.872;74.622;2023-04-24T03:46:01;20.00;38.80
52799;DHT22;38667;42.872;74.622;2023-04-24T03:48:27;20.00;38.50
52799;DHT22;38667;42.872;74.622;2023-04-24T03:50:54;20.20;38.60
52799;DHT22;38667;42.872;74.622;2023-04-24T03:53:20;20.30;38.10
52799;DHT22;38667;42.872;74.622;2023-04-24T03:55:46;20.40;38.00
52799;DHT22;38667;42.872;74.622;2023-04-24T03:58:13;20.50;38.10
52799;DHT22;38667;42.872;74.622;2023-04-24T04:00:41;20.60;38.00
52799;DHT22;38667;42.872;74.622;2023-04-24T04:03:07;20.70;37.00
52799;DHT22;38667;42.872;74.622;2023-04-24T04:05:33;20.80;36.60
52799;DHT22;38667;42.872;74.622;2023-04-24T04:08:00;20.90;36.60
52799;DHT22;38667;42.872;74.622;2023-04-24T04:10:26;21.00;35.70
52799;DHT22;38667;42.872;74.622;2023-04-24T04:12:52;21.10;34.70
52799;DHT22;38667;42.872;74.622;2023-04-24T04:15:19;21.20;33.10
52799;DHT22;38667;42.872;74.622;2023-04-24T04:17:46;21.30;33.70
52799;DHT22;38667;42.872;74.622;2023-04-24T04:20:13;21.40;33.70
52799;DHT22;38667;42.872;74.622;2023-04-24T04:22:39;21.50;33.70
52799;DHT22;38667;42.872;74.622;2023-04-24T04:25:06;21.60;33.70
52799;DHT22;38667;42.872;74.622;2023-04-24T04:27:32;21.70;33.30
52799;DHT22;38667;42.872;74.622;2023-04-24T04:29:59;21.80;33.00
52799;DHT22;38667;42.872;74.622;2023-04-24T04:32:25;21.80;33.30
52799;DHT22;38667;42.872;74.622;2023-04-24T04:34:53;21.80;33.20
52799;DHT22;38667;42.872;74.622;2023-04-24T04:37:19;21.80;32.80
52799;DHT22;38667;42.872;74.622;2023-04-24T04:39:46;21.80;32.80
52799;DHT22;38667;42.872;74.622;2023-04-24T04:42:12;21.80;32.60
52799;DHT22;38667;42.872;74.622;2023-04-24T04:44:38;21.90;32.40
52799;DHT22;38667;42.872;74.622;2023-04-24T04:47:05;21.90;32.50
52799;DHT22;38667;42.872;74.622;2023-04-24T04:49:31;22.00;32.10
52799;DHT22;38667;42.872;74.622;2023-04-24T04:51:59;22.20;31.80
52799;DHT22;38667;42.872;74.622;2023-04-24T04:54:25;22.20;31.50
52799;DHT22;38667;42.872;74.622;2023-04-24T04:56:52;22.30;31.50
52799;DHT22;38667;42.872;74.622;2023-04-24T04:59:18;22.40;31.70
52799;DHT22;38667;42.872;74.622;2023-04-24T05:01:44;22.50;31.30
52799;DHT22;38667;42.872;74.622;2023-04-24T05:04:10;22.60;30.50
52799;DHT22;38667;42.872;74.622;2023-04-24T05:06:37;22.60;29.80
52799;DHT22;38667;42.872;74.622;2023-04-24T05:09:05;22.70;30.60
52799;DHT22;38667;42.872;74.622;2023-04-24T05:11:31;22.80;30.50
52799;DHT22;38667;42.872;74.622;2023-04-24T05:13:57;22.80;29.60
52799;DHT22;38667;42.872;74.622;2023-04-24T05:16:24;22.80;29.70
52799;DHT22;38667;42.872;74.622;2023-04-24T05:18:50;22.90;30.80
52799;DHT22;38667;42.872;74.622;2023-04-24T05:21:16;23.00;30.30
52799;DHT22;38667;42.872;74.622;2023-04-24T05:23:42;23.10;26.50
52799;DHT22;38667;42.872;74.622;2023-04-24T05:26:10;23.10;25.70
52799;DHT22;38667;42.872;74.622;2023-04-24T05:28:37;23.20;25.00
52799;DHT22;38667;42.872;74.622;2023-04-24T05:31:03;23.30;25.30
52799;DHT22;38667;42.872;74.622;2023-04-24T05:33:30;23.40;23.90
52799;DHT22;38667;42.872;74.622;2023-04-24T05:35:56;23.60;24.60
52799;DHT22;38667;42.872;74.622;2023-04-24T05:38:22;23.90;26.10
52799;DHT22;38667;42.872;74.622;2023-04-24T05:40:49;24.40;26.20
52799;DHT22;38667;42.872;74.622;2023-04-24T05:43:16;25.20;25.30
52799;DHT22;38667;42.872;74.622;2023-04-24T05:45:43;26.10;25.80
52799;DHT22;38667;42.872;74.622;2023-04-24T05:48:09;26.50;24.30
52799;DHT22;38667;42.872;74.622;2023-04-24T05:50:35;26.90;24.10
52799;DHT22;38667;42.872;74.622;2023-04-24T05:53:02;26.80;19.80
52799;DHT22;38667;42.872;74.622;2023-04-24T05:55:28;26.30;22.70
52799;DHT22;38667;42.872;74.622;2023-04-24T05:57:54;26.10;23.10
52799;DHT22;38667;42.872;74.622;2023-04-24T06:00:23;26.00;24.10
52799;DHT22;38667;42.872;74.622;2023-04-24T06:02:49;25.90;22.20
52799;DHT22;38667;42.872;74.622;2023-04-24T06:05:16;25.90;22.80
52799;DHT22;38667;42.872;74.622;2023-04-24T06:07:42;25.80;21.70
52799;DHT22;38667;42.872;74.622;2023-04-24T06:10:09;25.80;21.70
52799;DHT22;38667;42.872;74.622;2023-04-24T06:12:36;25.80;22.90
52799;DHT22;38667;42.872;74.622;2023-04-24T06:15:03;25.70;22.80
52799;DHT22;38667;42.872;74.622;2023-04-24T06:17:31;25.80;22.40
52799;DHT22;38667;42.872;74.622;2023-04-24T06:19:57;25.80;23.30
52799;DHT22;38667;42.872;74.622;2023-04-24T06:22:24;25.80;22.50
52799;DHT22;38667;42.872;74.622;2023-04-24T06:24:50;25.70;20.90
52799;DHT22;38667;42.872;74.622;2023-04-24T06:27:16;25.70;20.50
52799;DHT22;38667;42.872;74.622;2023-04-24T06:29:43;25.60;19.50
52799;DHT22;38667;42.872;74.622;2023-04-24T06:32:09;25.70;19.80
52799;DHT22;38667;42.872;74.622;2023-04-24T06:34:37;25.70;20.70
52799;DHT22;38667;42.872;74.622;2023-04-24T06:37:03;25.80;21.00
52799;DHT22;38667;42.872;74.622;2023-04-24T06:39:29;25.90;20.20
52799;DHT22;38667;42.872;74.622;2023-04-24T06:41:56;26.00;21.00
52799;DHT22;38667;42.872;74.622;2023-04-24T06:44:22;26.10;21.60
52799;DHT22;38667;42.872;74.622;2023-04-24T06:46:48;26.30;22.10
52799;DHT22;38667;42.872;74.622;2023-04-24T06:49:15;26.60;21.80
52799;DHT22;38667;42.872;74.622;2023-04-24T06:51:42;27.00;19.70
52799;DHT22;38667;42.872;74.622;2023-04-24T06:54:09;26.90;20.30
52799;DHT22;38667;42.872;74.622;2023-04-24T06:56:35;27.00;22.10
52799;DHT22;38667;42.872;74.622;2023-04-24T06:59:01;27.30;21.10
52799;DHT22;38667;42.872;74.622;2023-04-24T07:01:28;27.40;20.50
52799;DHT22;38667;42.872;74.622;2023-04-24T07:03:54;27.10;19.00
52799;DHT22;38667;42.872;74.622;2023-04-24T07:06:20;26.90;17.30
52799;DHT22;38667;42.872;74.622;2023-04-24T07:08:48;26.80;20.00
52799;DHT22;38667;42.872;74.622;2023-04-24T07:11:14;27.00;21.80
52799;DHT22;38667;42.872;74.622;2023-04-24T07:13:41;27.50;21.90
52799;DHT22;38667;42.872;74.622;2023-04-24T07:16:07;28.20;21.30
52799;DHT22;38667;42.872;74.622;2023-04-24T07:18:34;28.40;19.40
52799;DHT22;38667;42.872;74.622;2023-04-24T07:21:01;28.00;20.70
52799;DHT22;38667;42.872;74.622;2023-04-24T07:23:27;27.70;20.20
52799;DHT22;38667;42.872;74.622;2023-04-24T07:25:55;27.30;20.30
52799;DHT22;38667;42.872;74.622;2023-04-24T07:28:21;27.00;18.60
52799;DHT22;38667;42.872;74.622;2023-04-24T07:30:47;27.10;20.20
52799;DHT22;38667;42.872;74.622;2023-04-24T07:33:14;27.40;19.40
52799;DHT22;38667;42.872;74.622;2023-04-24T07:35:40;27.70;20.00
52799;DHT22;38667;42.872;74.622;2023-04-24T07:38:06;27.80;20.00
52799;DHT22;38667;42.872;74.622;2023-04-24T07:40:33;27.90;22.10
52799;DHT22;38667;42.872;74.622;2023-04-24T07:43:00;27.80;22.70
52799;DHT22;38667;42.872;74.622;2023-04-24T07:45:27;27.60;24.40
52799;DHT22;38667;42.872;74.622;2023-04-24T07:47:53;27.80;23.10
52799;DHT22;38667;42.872;74.622;2023-04-24T07:50:20;28.00;20.90
52799;DHT22;38667;42.872;74.622;2023-04-24T07:52:46;28.50;21.00
52799;DHT22;38667;42.872;74.622;2023-04-24T07:55:12;29.20;21.20
52799;DHT22;38667;42.872;74.622;2023-04-24T07:57:39;29.00;19.80
52799;DHT22;38667;42.872;74.622;2023-04-24T08:00:08;28.30;20.00
52799;DHT22;38667;42.872;74.622;2023-04-24T08:02:34;27.40;21.50
52799;DHT22;38667;42.872;74.622;2023-04-24T08:05:01;26.70;22.30
52799;DHT22;38667;42.872;74.622;2023-04-24T08:07:27;26.30;21.10
52799;DHT22;38667;42.872;74.622;2023-04-24T08:09:53;26.20;20.50
52799;DHT22;38667;42.872;74.622;2023-04-24T08:12:19;26.30;18.40
52799;DHT22;38667;42.872;74.622;2023-04-24T08:14:46;26.10;20.50
52799;DHT22;38667;42.872;74.622;2023-04-24T08:17:13;26.20;19.70
52799;DHT22;38667;42.872;74.622;2023-04-24T08:19:40;26.00;19.70
52799;DHT22;38667;42.872;74.622;2023-04-24T08:22:07;26.00;21.60
52799;DHT22;38667;42.872;74.622;2023-04-24T08:24:33;26.00;23.90
52799;DHT22;38667;42.872;74.622;2023-04-24T08:26:59;25.80;22.10
52799;DHT22;38667;42.872;74.622;2023-04-24T08:29:25;25.90;23.40
52799;DHT22;38667;42.872;74.622;2023-04-24T08:31:52;26.00;22.90
52799;DHT22;38667;42.872;74.622;2023-04-24T08:34:20;26.00;20.00
52799;DHT22;38667;42.872;74.622;2023-04-24T08:36:46;26.00;20.90
52799;DHT22;38667;42.872;74.622;2023-04-24T08:39:12;25.90;21.00
52799;DHT22;38667;42.872;74.622;2023-04-24T08:41:41;26.10;22.90
52799;DHT22;38667;42.872;74.622;2023-04-24T08:44:07;26.50;23.60
52799;DHT22;38667;42.872;74.622;2023-04-24T08:46:34;26.50;24.60
52799;DHT22;38667;42.872;74.622;2023-04-24T08:49:00;26.20;23.30
52799;DHT22;38667;42.872;74.622;2023-04-24T08:51:29;26.20;24.10
52799;DHT22;38667;42.872;74.622;2023-04-24T08:53:57;26.20;22.00
52799;DHT22;38667;42.872;74.622;2023-04-24T08:56:24;25.80;23.70
52799;DHT22;38667;42.872;74.622;2023-04-24T08:58:51;25.50;23.20
52799;DHT22;38667;42.872;74.622;2023-04-24T09:01:18;25.20;22.50
52799;DHT22;38667;42.872;74.622;2023-04-24T09:03:45;25.00;23.00
52799;DHT22;38667;42.872;74.622;2023-04-24T09:06:12;24.80;23.20
52799;DHT22;38667;42.872;74.622;2023-04-24T09:08:41;24.60;23.90
52799;DHT22;38667;42.872;74.622;2023-04-24T09:11:09;24.60;22.40
52799;DHT22;38667;42.872;74.622;2023-04-24T09:13:35;24.50;24.20
52799;DHT22;38667;42.872;74.622;2023-04-24T09:16:02;24.50;26.30
52799;DHT22;38667;42.872;74.622;2023-04-24T09:18:29;24.50;27.80
52799;DHT22;38667;42.872;74.622;2023-04-24T09:20:58;24.50;28.50
52799;DHT22;38667;42.872;74.622;2023-04-24T09:23:27;24.40;29.50
52799;DHT22;38667;42.872;74.622;2023-04-24T09:25:56;24.20;31.20
52799;DHT22;38667;42.872;74.622;2023-04-24T09:28:26;24.20;31.60
52799;DHT22;38667;42.872;74.622;2023-04-24T09:31:03;24.10;33.20
52799;DHT22;38667;42.872;74.622;2023-04-24T09:33:29;24.00;32.80
52799;DHT22;38667;42.872;74.622;2023-04-24T09:35:56;23.80;33.40
52799;DHT22;38667;42.872;74.622;2023-04-24T09:38:31;23.70;33.40
52799;DHT22;38667;42.872;74.622;2023-04-24T09:41:01;23.40;33.20
52799;DHT22;38667;42.872;74.622;2023-04-24T09:43:28;23.50;32.20
52799;DHT22;38667;42.872;74.622;2023-04-24T09:45:56;23.50;32.30
52799;DHT22;38667;42.872;74.622;2023-04-24T09:48:30;23.40;31.40
52799;DHT22;38667;42.872;74.622;2023-04-24T09:50:56;23.40;30.90
52799;DHT22;38667;42.872;74.622;2023-04-24T09:53:24;23.30;31.00
52799;DHT22;38667;42.872;74.622;2023-04-24T09:55:51;23.30;31.10
52799;DHT22;38667;42.872;74.622;2023-04-24T09:58:19;23.30;30.50
52799;DHT22;38667;42.872;74.622;2023-04-24T10:00:50;23.40;30.60
52799;DHT22;38667;42.872;74.622;2023-04-24T10:03:19;23.50;31.20
52799;DHT22;38667;42.872;74.622;2023-04-24T10:05:46;23.60;31.80
52799;DHT22;38667;42.872;74.622;2023-04-24T10:08:13;23.70;32.30
52799;DHT22;38667;42.872;74.622;2023-04-24T10:10:40;23.70;33.20
52799;DHT22;38667;42.872;74.622;2023-04-24T10:13:08;23.60;33.30
52799;DHT22;38667;42.872;74.622;2023-04-24T10:15:36;23.50;33.90
52799;DHT22;38667;42.872;74.622;2023-04-24T10:18:04;23.30;34.00
52799;DHT22;38667;42.872;74.622;2023-04-24T10:20:31;23.30;34.00
52799;DHT22;38667;42.872;74.622;2023-04-24T10:22:58;23.20;33.60
52799;DHT22;38667;42.872;74.622;2023-04-24T10:25:26;23.10;33.50
52799;DHT22;38667;42.872;74.622;2023-04-24T10:27:54;22.90;34.00
52799;DHT22;38667;42.872;74.622;2023-04-24T10:30:20;22.90;34.30
52799;DHT22;38667;42.872;74.622;2023-04-24T10:32:48;22.80;34.00
52799;DHT22;38667;42.872;74.622;2023-04-24T10:35:15;22.90;33.60
52799;DHT22;38667;42.872;74.622;2023-04-24T10:37:45;22.80;34.00
52799;DHT22;38667;42.872;74.622;2023-04-24T10:40:17;22.70;34.20
52799;DHT22;38667;42.872;74.622;2023-04-24T10:42:47;22.70;34.20
52799;DHT22;38667;42.872;74.622;2023-04-24T10:45:17;22.60;34.30
52799;DHT22;38667;42.872;74.622;2023-04-24T10:47:43;22.60;34.20
52799;DHT22;38667;42.872;74.622;2023-04-24T10:50:18;22.50;34.50
52799;DHT22;38667;42.872;74.622;2023-04-24T10:52:44;22.50;34.60
52799;DHT22;38667;42.872;74.622;2023-04-24T10:55:13;22.50;35.20
52799;DHT22;38667;42.872;74.622;2023-04-24T10:57:39;22.40;35.70
52799;DHT22;38667;42.872;74.622;2023-04-24T11:00:18;22.30;35.70
52799;DHT22;38667;42.872;74.622;2023-04-24T11:02:46;22.20;36.10
52799;DHT22;38667;42.872;74.622;2023-04-24T11:05:15;22.20;35.90
52799;DHT22;38667;42.872;74.622;2023-04-24T11:08:13;22.20;35.60
52799;DHT22;38667;42.872;74.622;2023-04-24T11:10:41;22.10;35.20
52799;DHT22;38667;42.872;74.622;2023-04-24T11:13:10;22.00;35.50
52799;DHT22;38667;42.872;74.622;2023-04-24T11:15:36;22.00;35.60
52799;DHT22;38667;42.872;74.622;2023-04-24T11:18:02;21.80;36.30
52799;DHT22;38667;42.872;74.622;2023-04-24T11:20:29;21.80;37.00
52799;DHT22;38667;42.872;74.622;2023-04-24T11:22:55;21.70;37.30
52799;DHT22;38667;42.872;74.622;2023-04-24T11:25:23;21.70;37.30
52799;DHT22;38667;42.872;74.622;2023-04-24T11:27:50;21.60;37.60
52799;DHT22;38667;42.872;74.622;2023-04-24T11:30:18;21.60;38.10
52799;DHT22;38667;42.872;74.622;2023-04-24T11:32:49;21.50;38.30
52799;DHT22;38667;42.872;74.622;2023-04-24T11:35:18;21.40;38.80
52799;DHT22;38667;42.872;74.622;2023-04-24T11:37:46;21.30;38.90
52799;DHT22;38667;42.872;74.622;2023-04-24T11:40:14;21.30;39.00
52799;DHT22;38667;42.872;74.622;2023-04-24T11:42:43;21.20;38.90
52799;DHT22;38667;42.872;74.622;2023-04-24T11:45:10;21.20;38.90
52799;DHT22;38667;42.872;74.622;2023-04-24T11:47:37;21.20;38.10
52799;DHT22;38667;42.872;74.622;2023-04-24T11:50:06;21.10;38.30
52799;DHT22;38667;42.872;74.622;2023-04-24T11:52:36;21.00;38.40
52799;DHT22;38667;42.872;74.622;2023-04-24T11:55:02;21.10;38.50
52799;DHT22;38667;42.872;74.622;2023-04-24T11:57:29;21.00;37.90
52799;DHT22;38667;42.872;74.622;2023-04-24T11:59:57;21.00;37.60
52799;DHT22;38667;42.872;74.622;2023-04-24T12:02:23;20.90;37.90
52799;DHT22;38667;42.872;74.622;2023-04-24T12:04:50;20.90;38.00
52799;DHT22;38667;42.872;74.622;2023-04-24T12:07:17;20.90;38.10
52799;DHT22;38667;42.872;74.622;2023-04-24T12:09:44;20.90;36.50
52799;DHT22;38667;42.872;74.622;2023-04-24T12:12:12;20.90;35.90
52799;DHT22;38667;42.872;74.622;2023-04-24T12:15:00;20.90;35.70
52799;DHT22;38667;42.872;74.622;2023-04-24T12:17:28;20.80;35.90
52799;DHT22;38667;42.872;74.622;2023-04-24T12:19:58;20.80;35.60
52799;DHT22;38667;42.872;74.622;2023-04-24T12:22:25;20.80;33.80
52799;DHT22;38667;42.872;74.622;2023-04-24T12:24:59;20.80;33.30
52799;DHT22;38667;42.872;74.622;2023-04-24T12:27:25;20.80;32.60
52799;DHT22;38667;42.872;74.622;2023-04-24T12:29:52;20.80;31.20
52799;DHT22;38667;42.872;74.622;2023-04-24T12:32:20;20.80;31.10
52799;DHT22;38667;42.872;74.622;2023-04-24T12:34:47;20.80;30.60
52799;DHT22;38667;42.872;74.622;2023-04-24T12:37:13;20.80;30.80
52799;DHT22;38667;42.872;74.622;2023-04-24T12:39:39;20.80;31.10
52799;DHT22;38667;42.872;74.622;2023-04-24T12:42:11;20.70;32.30
52799;DHT22;38667;42.872;74.622;2023-04-24T12:44:37;20.50;33.00
52799;DHT22;38667;42.872;74.622;2023-04-24T12:47:04;20.40;33.70
52799;DHT22;38667;42.872;74.622;2023-04-24T12:49:32;20.20;34.20
52799;DHT22;38667;42.872;74.622;2023-04-24T12:51:58;20.10;35.10
52799;DHT22;38667;42.872;74.622;2023-04-24T12:54:24;20.00;35.70
52799;DHT22;38667;42.872;74.622;2023-04-24T12:56:51;19.70;36.90
52799;DHT22;38667;42.872;74.622;2023-04-24T12:59:17;19.50;38.50
52799;DHT22;38667;42.872;74.622;2023-04-24T13:01:43;19.20;40.60
52799;DHT22;38667;42.872;74.622;2023-04-24T13:04:10;19.00;40.10
52799;DHT22;38667;42.872;74.622;2023-04-24T13:06:38;18.70;41.90
52799;DHT22;38667;42.872;74.622;2023-04-24T13:09:04;18.40;42.60
52799;DHT22;38667;42.872;74.622;2023-04-24T13:11:30;18.20;43.30
52799;DHT22;38667;42.872;74.622;2023-04-24T13:13:57;18.20;43.20
52799;DHT22;38667;42.872;74.622;2023-04-24T13:16:23;18.10;43.30
52799;DHT22;38667;42.872;74.622;2023-04-24T13:18:49;18.10;43.60
52799;DHT22;38667;42.872;74.622;2023-04-24T13:21:16;18.10;42.90
52799;DHT22;38667;42.872;74.622;2023-04-24T13:23:43;18.20;42.50
52799;DHT22;38667;42.872;74.622;2023-04-24T13:26:10;18.30;42.10
52799;DHT22;38667;42.872;74.622;2023-04-24T13:28:36;18.30;42.00
52799;DHT22;38667;42.872;74.622;2023-04-24T13:31:02;18.30;42.70
52799;DHT22;38667;42.872;74.622;2023-04-24T13:33:29;18.30;42.90
52799;DHT22;38667;42.872;74.622;2023-04-24T13:35:55;18.40;43.00
52799;DHT22;38667;42.872;74.622;2023-04-24T13:38:22;18.40;43.00
52799;DHT22;38667;42.872;74.622;2023-04-24T13:40:49;18.40;42.20
52799;DHT22;38667;42.872;74.622;2023-04-24T13:43:16;18.40;42.60
52799;DHT22;38667;42.872;74.622;2023-04-24T13:45:42;18.30;42.80
52799;DHT22;38667;42.872;74.622;2023-04-24T13:48:08;18.20;42.60
52799;DHT22;38667;42.872;74.622;2023-04-24T13:50:35;18.20;41.90
52799;DHT22;38667;42.872;74.622;2023-04-24T13:53:02;18.30;41.80
52799;DHT22;38667;42.872;74.622;2023-04-24T13:55:28;18.30;42.20
52799;DHT22;38667;42.872;74.622;2023-04-24T13:57:56;18.30;42.30
52799;DHT22;38667;42.872;74.622;2023-04-24T14:00:23;18.20;41.80
52799;DHT22;38667;42.872;74.622;2023-04-24T14:02:49;18.30;41.60
52799;DHT22;38667;42.872;74.622;2023-04-24T14:05:16;18.30;41.80
52799;DHT22;38667;42.872;74.622;2023-04-24T14:07:42;18.20;42.00
52799;DHT22;38667;42.872;74.622;2023-04-24T14:10:09;18.30;42.00
52799;DHT22;38667;42.872;74.622;2023-04-24T14:12:35;18.30;41.50
52799;DHT22;38667;42.872;74.622;2023-04-24T14:15:04;18.30;42.00
52799;DHT22;38667;42.872;74.622;2023-04-24T14:17:30;18.30;42.30
52799;DHT22;38667;42.872;74.622;2023-04-24T14:19:56;18.30;42.40
52799;DHT22;38667;42.872;74.622;2023-04-24T14:22:23;18.30;41.50
52799;DHT22;38667;42.872;74.622;2023-04-24T14:24:49;18.30;41.70
52799;DHT22;38667;42.872;74.622;2023-04-24T14:27:15;18.40;41.20
52799;DHT22;38667;42.872;74.622;2023-04-24T14:29:42;18.50;40.80
52799;DHT22;38667;42.872;74.622;2023-04-24T14:32:09;18.50;40.60
52799;DHT22;38667;42.872;74.622;2023-04-24T14:34:36;18.60;41.00
52799;DHT22;38667;42.872;74.622;2023-04-24T14:37:02;18.60;41.40
52799;DHT22;38667;42.872;74.622;2023-04-24T14:39:28;18.50;42.40
52799;DHT22;38667;42.872;74.622;2023-04-24T14:41:55;18.40;42.80
52799;DHT22;38667;42.872;74.622;2023-04-24T14:44:21;18.40;42.60
52799;DHT22;38667;42.872;74.622;2023-04-24T14:46:48;18.50;41.80
52799;DHT22;38667;42.872;74.622;2023-04-24T14:49:16;18.50;41.70
52799;DHT22;38667;42.872;74.622;2023-04-24T14:51:43;18.50;41.60
52799;DHT22;38667;42.872;74.622;2023-04-24T14:54:09;18.50;42.80
52799;DHT22;38667;42.872;74.622;2023-04-24T14:56:35;18.50;42.00
52799;DHT22;38667;42.872;74.622;2023-04-24T14:59:02;18.40;43.00
52799;DHT22;38667;42.872;74.622;2023-04-24T15:01:29;18.40;43.50
52799;DHT22;38667;42.872;74.622;2023-04-24T15:03:55;18.20;43.60
52799;DHT22;38667;42.872;74.622;2023-04-24T15:06:23;18.20;42.60
52799;DHT22;38667;42.872;74.622;2023-04-24T15:08:49;18.30;42.60
52799;DHT22;38667;42.872;74.622;2023-04-24T15:11:15;18.30;43.30
52799;DHT22;38667;42.872;74.622;2023-04-24T15:13:42;18.20;44.00
52799;DHT22;38667;42.872;74.622;2023-04-24T15:16:08;18.20;43.60
52799;DHT22;38667;42.872;74.622;2023-04-24T15:18:35;18.10;43.90
52799;DHT22;38667;42.872;74.622;2023-04-24T15:21:01;18.10;44.90
52799;DHT22;38667;42.872;74.622;2023-04-24T15:23:29;18.00;44.50
52799;DHT22;38667;42.872;74.622;2023-04-24T15:25:55;18.00;45.20